Adair, Missouri
Current Conditions -  °F | °C
As of 3:55 AM on Sunday 25 Jan 2015 (Local Time) from KIRK Reporting Station
Light Rain Light Rain  
Wind Chill: 36°   Ceiling: 2000
Heat Index: 40°   Visibility: 10mi
Dew Point: 39°   Wind: 6mph
Humidity: 97%   Direction: 200°SSW
Pressure: 29.56"   Gusts: NA
Location:  40.2186°N, 92.4328°W
Report Text: KIRK 250955Z AUTO 20005KT 10SM -RA BKN020 OVC033 04/04 A2956 RMK AO2 RAE30B53 SLP015 P0001 T00440039 $
Loading
Personal Weather Stations






























Interactive Weather Map New forecast layout! Learn more

10-Day Weather Forecast

Advertisements
Track Severe Weather on mobile